Time;durP1;ratioP1;P1;durP2;ratioP2;P2;SDS_P1;SDS_P2;PMS_P1;PMS_P2;Temp;Humidity;BMP_temperature;BMP_pressure;BME280_temperature;BME280_humidity;BME280_pressure;Samples;Min_cycle;Max_cycle;Signal;HPM_P1;HPM_P2
2023/04/24 00:03:12;;;;;;;8.02;4.22;;;;;;;;;;10364084;28;21547;-58
2023/04/24 00:08:13;;;;;;;5.85;3.90;;;;;;;;;;10364539;28;20611;-58
2023/04/24 00:13:14;;;;;;;5.55;4.10;;;;;;;;;;10364044;28;20505;-58
2023/04/24 00:18:14;;;;;;;4.35;3.95;;;;;;;;;;10363740;28;20030;-59
2023/04/24 00:23:15;;;;;;;5.93;4.10;;;;;;;;;;10363993;28;20029;-59
2023/04/24 00:28:15;;;;;;;6.05;4.53;;;;;;;;;;10365178;28;20042;-60
2023/04/24 00:33:16;;;;;;;4.97;3.97;;;;;;;;;;10363288;28;20073;-60
2023/04/24 00:38:16;;;;;;;5.95;4.38;;;;;;;;;;10361559;28;20378;-60
2023/04/24 00:43:17;;;;;;;6.45;4.00;;;;;;;;;;10363528;28;20394;-60
2023/04/24 00:48:18;;;;;;;4.72;3.90;;;;;;;;;;10362841;28;20050;-60
2023/04/24 00:53:19;;;;;;;7.63;3.80;;;;;;;;;;10363437;28;20126;-61
2023/04/24 00:58:19;;;;;;;6.65;3.83;;;;;;;;;;10369717;28;20079;-60
2023/04/24 01:03:22;;;;;;;4.95;3.83;;;;;;;;;;10371397;28;20084;-60
2023/04/24 01:08:25;;;;;;;4.93;4.00;;;;;;;;;;10371095;28;20056;-60
2023/04/24 01:13:26;;;;;;;5.40;3.63;;;;;;;;;;10369825;28;20065;-60
2023/04/24 01:18:27;;;;;;;6.45;4.00;;;;;;;;;;10370643;28;21224;-61
2023/04/24 01:23:28;;;;;;;4.43;3.92;;;;;;;;;;10369196;28;20398;-61
2023/04/24 01:28:29;;;;;;;4.55;3.80;;;;;;;;;;10370070;28;20029;-60
2023/04/24 01:33:29;;;;;;;5.25;3.95;;;;;;;;;;10370450;28;20030;-60
2023/04/24 01:38:30;;;;;;;5.45;3.92;;;;;;;;;;10370101;28;20113;-60
2023/04/24 01:43:31;;;;;;;6.82;3.47;;;;;;;;;;10359082;28;20034;-62
2023/04/24 01:48:33;;;;;;;4.05;3.55;;;;;;;;;;10368473;28;20313;-60
2023/04/24 01:53:34;;;;;;;5.93;3.90;;;;;;;;;;10352328;28;20057;-60
2023/04/24 01:58:35;;;;;;;4.35;3.92;;;;;;;;;;10368320;28;20274;-58
2023/04/24 02:03:35;;;;;;;4.65;3.45;;;;;;;;;;10367813;28;20052;-58
2023/04/24 02:08:56;;;;;;;4.68;3.75;;;;;;;;;;10367084;28;20439;-59
2023/04/24 02:13:57;;;;;;;4.88;3.70;;;;;;;;;;10152166;29;20576;-57
2023/04/24 02:18:58;;;;;;;4.57;3.80;;;;;;;;;;10150907;29;20122;-57
2023/04/24 02:23:59;;;;;;;4.88;3.75;;;;;;;;;;10146636;29;20044;-58
2023/04/24 02:28:59;;;;;;;3.70;3.40;;;;;;;;;;10174025;29;20079;-58
2023/04/24 02:34:00;;;;;;;4.55;4.10;;;;;;;;;;10149322;29;20103;-59
2023/04/24 02:39:01;;;;;;;4.78;3.78;;;;;;;;;;10162837;29;20056;-58
2023/04/24 02:44:01;;;;;;;4.15;3.35;;;;;;;;;;10168158;29;20044;-58
2023/04/24 02:49:02;;;;;;;3.60;3.30;;;;;;;;;;10238040;28;20034;-58
2023/04/24 02:54:03;;;;;;;4.57;3.47;;;;;;;;;;10366851;28;20128;-58
2023/04/24 02:59:03;;;;;;;3.63;3.33;;;;;;;;;;10367394;28;20117;-58
2023/04/24 03:04:04;;;;;;;5.72;3.90;;;;;;;;;;10367274;28;20038;-58
2023/04/24 03:09:05;;;;;;;4.68;3.45;;;;;;;;;;10366236;28;20037;-58
2023/04/24 03:14:05;;;;;;;7.15;3.53;;;;;;;;;;10365694;28;20080;-58
2023/04/24 03:19:06;;;;;;;3.50;3.20;;;;;;;;;;10366108;28;20028;-59
2023/04/24 03:24:09;;;;;;;3.72;3.40;;;;;;;;;;10363852;28;20029;-60
2023/04/24 03:29:10;;;;;;;12.68;3.40;;;;;;;;;;10365543;28;21151;-60
2023/04/24 03:34:10;;;;;;;4.38;3.20;;;;;;;;;;10365675;28;20096;-60
2023/04/24 03:39:11;;;;;;;3.78;3.17;;;;;;;;;;10365028;28;20025;-58
2023/04/24 03:44:11;;;;;;;4.45;3.70;;;;;;;;;;10360473;28;20410;-58
2023/04/24 03:49:12;;;;;;;5.45;3.00;;;;;;;;;;10365330;28;20371;-58
2023/04/24 03:54:13;;;;;;;4.45;3.08;;;;;;;;;;10363305;28;20042;-58
2023/04/24 03:59:14;;;;;;;4.90;3.15;;;;;;;;;;10364544;28;20037;-58
2023/04/24 04:04:14;;;;;;;4.15;2.97;;;;;;;;;;10363538;28;20034;-58
2023/04/24 04:09:15;;;;;;;3.53;3.17;;;;;;;;;;10364601;28;20042;-59
2023/04/24 04:14:16;;;;;;;5.88;2.88;;;;;;;;;;10363895;28;20037;-58
2023/04/24 04:19:16;;;;;;;3.30;3.00;;;;;;;;;;10363764;28;20150;-59
2023/04/24 04:24:17;;;;;;;3.78;3.40;;;;;;;;;;10363912;28;20057;-61
2023/04/24 04:29:18;;;;;;;3.58;3.28;;;;;;;;;;10366561;28;20030;-59
2023/04/24 04:34:19;;;;;;;3.10;2.90;;;;;;;;;;10372280;28;20482;-60
2023/04/24 04:39:20;;;;;;;4.50;3.05;;;;;;;;;;10372758;28;20038;-60
2023/04/24 04:44:20;;;;;;;4.65;2.90;;;;;;;;;;10371226;28;20543;-60
2023/04/24 04:49:21;;;;;;;3.42;3.13;;;;;;;;;;10370604;28;20064;-60
2023/04/24 04:54:22;;;;;;;6.15;2.92;;;;;;;;;;10370906;28;20042;-59
2023/04/24 04:59:22;;;;;;;3.42;3.13;;;;;;;;;;10371982;28;20026;-60
2023/04/24 05:04:23;;;;;;;3.35;3.05;;;;;;;;;;10364038;28;20025;-59
2023/04/24 05:09:27;;;;;;;3.15;2.75;;;;;;;;;;10370746;28;20499;-59
2023/04/24 05:14:27;;;;;;;4.28;2.80;;;;;;;;;;10369703;28;20033;-59
2023/04/24 05:19:28;;;;;;;4.43;3.00;;;;;;;;;;10369940;28;20088;-58
2023/04/24 05:24:28;;;;;;;3.20;2.88;;;;;;;;;;10370560;28;20026;-58
2023/04/24 05:29:30;;;;;;;3.35;2.75;;;;;;;;;;10370530;28;20040;-59
2023/04/24 05:34:31;;;;;;;3.38;3.08;;;;;;;;;;10368804;28;20040;-58
2023/04/24 05:39:31;;;;;;;3.58;3.28;;;;;;;;;;10365796;28;20026;-58
2023/04/24 05:44:32;;;;;;;6.30;3.55;;;;;;;;;;10368252;28;20367;-59
2023/04/24 05:49:33;;;;;;;4.15;3.63;;;;;;;;;;10340133;28;20405;-59
2023/04/24 05:54:33;;;;;;;9.73;3.38;;;;;;;;;;10363800;28;20038;-58
2023/04/24 05:59:37;;;;;;;11.68;3.65;;;;;;;;;;10369555;28;20030;-58
2023/04/24 06:04:38;;;;;;;4.43;3.40;;;;;;;;;;10368042;28;20446;-58
2023/04/24 06:09:38;;;;;;;8.68;3.22;;;;;;;;;;10367231;28;20030;-57
2023/04/24 06:14:39;;;;;;;10.98;3.50;;;;;;;;;;10368694;28;20034;-58
2023/04/24 06:19:40;;;;;;;7.30;3.85;;;;;;;;;;10365685;28;20041;-58
2023/04/24 06:24:41;;;;;;;6.07;3.35;;;;;;;;;;10368053;28;20080;-58
2023/04/24 06:29:41;;;;;;;8.85;3.47;;;;;;;;;;10368661;28;20552;-58
2023/04/24 06:34:42;;;;;;;14.00;3.70;;;;;;;;;;10358297;28;20033;-58
2023/04/24 06:39:42;;;;;;;8.60;3.92;;;;;;;;;;10363825;28;20167;-58
2023/04/24 06:44:44;;;;;;;11.55;4.40;;;;;;;;;;10367007;28;20073;-58
2023/04/24 06:49:44;;;;;;;8.15;4.00;;;;;;;;;;10367527;28;20089;-58
2023/04/24 06:54:45;;;;;;;7.47;4.25;;;;;;;;;;10365129;28;20038;-61
2023/04/24 06:59:46;;;;;;;10.77;3.70;;;;;;;;;;10365590;28;20040;-59
2023/04/24 07:04:47;;;;;;;10.52;3.95;;;;;;;;;;10366707;28;20034;-58
2023/04/24 07:09:48;;;;;;;10.23;4.03;;;;;;;;;;10366309;28;20116;-59
2023/04/24 07:14:50;;;;;;;15.93;4.10;;;;;;;;;;10364682;28;20447;-57
2023/04/24 07:19:51;;;;;;;11.18;4.43;;;;;;;;;;10362367;28;20034;-59
2023/04/24 07:24:51;;;;;;;15.77;3.88;;;;;;;;;;10366831;28;20462;-58
2023/04/24 07:29:52;;;;;;;10.90;4.10;;;;;;;;;;10357401;28;20034;-59
2023/04/24 07:34:52;;;;;;;10.27;3.70;;;;;;;;;;10366735;28;20043;-58
2023/04/24 07:39:53;;;;;;;31.45;4.32;;;;;;;;;;10356435;28;20033;-60
2023/04/24 07:44:53;;;;;;;13.23;4.05;;;;;;;;;;10365282;28;20057;-58
2023/04/24 07:49:54;;;;;;;18.65;4.25;;;;;;;;;;10365736;28;20425;-59
2023/04/24 07:54:58;;;;;;;16.02;4.40;;;;;;;;;;10365303;28;20119;-59
2023/04/24 07:59:58;;;;;;;24.80;5.20;;;;;;;;;;10365250;28;20033;-59
2023/04/24 08:04:59;;;;;;;15.27;4.28;;;;;;;;;;10364879;28;20025;-59
2023/04/24 08:10:00;;;;;;;12.50;4.57;;;;;;;;;;10364306;28;20045;-60
2023/04/24 08:15:00;;;;;;;15.52;4.45;;;;;;;;;;10364089;28;20080;-59
2023/04/24 08:20:03;;;;;;;16.30;4.28;;;;;;;;;;10362790;28;20485;-59
2023/04/24 08:25:05;;;;;;;10.98;3.95;;;;;;;;;;10364942;28;20228;-60
2023/04/24 08:30:09;;;;;;;11.05;4.10;;;;;;;;;;10361800;28;20473;-59
2023/04/24 08:35:10;;;;;;;7.95;3.85;;;;;;;;;;10363356;28;20026;-62
2023/04/24 08:40:16;;;;;;;6.15;3.70;;;;;;;;;;10362062;28;20089;-59
2023/04/24 08:45:17;;;;;;;5.15;3.10;;;;;;;;;;10363453;28;20060;-57
2023/04/24 08:50:17;;;;;;;7.95;3.20;;;;;;;;;;10364070;28;20054;-58
2023/04/24 08:55:20;;;;;;;11.07;4.10;;;;;;;;;;10364458;28;20501;-61
2023/04/24 09:00:21;;;;;;;15.20;4.25;;;;;;;;;;10364998;28;20064;-58
2023/04/24 09:05:25;;;;;;;7.78;3.08;;;;;;;;;;10364128;28;20061;-62
2023/04/24 09:10:27;;;;;;;5.10;3.38;;;;;;;;;;10363280;28;20472;-62
2023/04/24 09:15:28;;;;;;;7.20;3.28;;;;;;;;;;10363204;28;20018;-58
2023/04/24 09:20:29;;;;;;;12.88;3.88;;;;;;;;;;10371008;28;20042;-57
2023/04/24 09:25:35;;;;;;;7.30;3.38;;;;;;;;;;10369612;28;20026;-61
2023/04/24 09:30:36;;;;;;;10.05;3.17;;;;;;;;;;10369717;28;20026;-61
2023/04/24 09:35:40;;;;;;;8.55;3.70;;;;;;;;;;10369376;28;20478;-61
2023/04/24 09:40:41;;;;;;;5.47;2.78;;;;;;;;;;10364439;28;20030;-61
2023/04/24 09:45:41;;;;;;;8.13;3.63;;;;;;;;;;10372004;28;20249;-59
2023/04/24 09:50:46;;;;;;;14.57;3.42;;;;;;;;;;10370193;28;20646;-58
2023/04/24 09:55:48;;;;;;;17.73;4.28;;;;;;;;;;10369836;28;20026;-60
2023/04/24 10:00:49;;;;;;;18.75;3.10;;;;;;;;;;10377939;28;20028;-58
2023/04/24 10:05:52;;;;;;;18.70;3.60;;;;;;;;;;10367694;28;20363;-60
2023/04/24 10:10:53;;;;;;;8.93;3.08;;;;;;;;;;10375560;28;20030;-58
2023/04/24 10:15:53;;;;;;;9.77;2.88;;;;;;;;;;10367717;28;20026;-58
2023/04/24 10:20:54;;;;;;;13.63;3.10;;;;;;;;;;10350785;28;20033;-57
2023/04/24 10:25:55;;;;;;;13.98;3.20;;;;;;;;;;10369201;28;20022;-58
2023/04/24 10:30:58;;;;;;;13.73;3.25;;;;;;;;;;10367713;28;20507;-59
2023/04/24 10:35:59;;;;;;;13.73;3.38;;;;;;;;;;10351122;28;20062;-59
2023/04/24 10:41:19;;;;;;;5.07;2.90;;;;;;;;;;10367117;28;20030;-58
2023/04/24 10:46:21;;;;;;;15.23;2.78;;;;;;;;;;10367422;28;20026;-60
2023/04/24 10:51:23;;;;;;;4.65;2.55;;;;;;;;;;10367735;28;20049;-59
2023/04/24 10:56:24;;;;;;;6.82;2.40;;;;;;;;;;10367049;28;20034;-59
2023/04/24 11:01:30;;;;;;;8.25;2.88;;;;;;;;;;10366251;28;20030;-59
2023/04/24 11:06:36;;;;;;;4.65;2.78;;;;;;;;;;10354232;28;20021;-58
2023/04/24 11:11:44;;;;;;;6.53;2.80;;;;;;;;;;10366443;28;20037;-60
2023/04/24 11:16:52;;;;;;;17.98;2.60;;;;;;;;;;10363949;28;20116;-59
2023/04/24 11:22:02;;;;;;;8.88;2.42;;;;;;;;;;10365472;28;20262;-59
2023/04/24 11:27:03;;;;;;;14.95;3.22;;;;;;;;;;10366874;28;20068;-59
2023/04/24 11:32:27;;;;;;;14.18;2.50;;;;;;;;;;10347919;28;20040;-59
2023/04/24 11:37:39;;;;;;;10.77;1.92;;;;;;;;;;10361934;28;20038;-59
2023/04/24 11:42:46;;;;;;;13.32;2.60;;;;;;;;;;10363333;28;20419;-59
2023/04/24 11:47:46;;;;;;;5.25;1.90;;;;;;;;;;10365769;28;20032;-59
2023/04/24 11:52:49;;;;;;;4.55;1.63;;;;;;;;;;10364585;28;20050;-59
2023/04/24 11:57:53;;;;;;;1.70;1.55;;;;;;;;;;10365303;28;20056;-59
2023/04/24 12:03:11;;;;;;;2.03;1.50;;;;;;;;;;10363833;28;20033;-59
2023/04/24 12:08:11;;;;;;;3.53;1.60;;;;;;;;;;10360746;28;20037;-59
2023/04/24 12:13:13;;;;;;;2.05;1.60;;;;;;;;;;10358898;28;20355;-59
2023/04/24 12:18:16;;;;;;;1.88;1.70;;;;;;;;;;10361803;28;20056;-59
2023/04/24 12:23:35;;;;;;;1.85;1.38;;;;;;;;;;10337138;28;20037;-58
2023/04/24 12:28:36;;;;;;;;;;;;;;;;;;10353437;28;20113;-58
2023/04/24 12:33:38;;;;;;;3.08;1.70;;;;;;;;;;10348067;28;19989;-58
2023/04/24 12:38:44;;;;;;;3.35;1.83;;;;;;;;;;10353819;28;20186;-59
2023/04/24 12:43:53;;;;;;;4.20;1.80;;;;;;;;;;10361471;28;20120;-60
2023/04/24 12:48:53;;;;;;;9.38;2.03;;;;;;;;;;10362591;28;20501;-61
2023/04/24 12:53:54;;;;;;;13.95;2.47;;;;;;;;;;10354050;28;20056;-62
2023/04/24 12:58:54;;;;;;;11.63;2.05;;;;;;;;;;10346911;28;20041;-59
2023/04/24 13:03:55;;;;;;;8.05;2.15;;;;;;;;;;10365316;28;20049;-60
2023/04/24 13:08:57;;;;;;;32.42;3.15;;;;;;;;;;10367926;28;20355;-60
2023/04/24 13:13:58;;;;;;;5.88;2.55;;;;;;;;;;10370770;28;20026;-59
2023/04/24 13:18:58;;;;;;;5.30;2.03;;;;;;;;;;10361839;28;20621;-60
2023/04/24 13:23:59;;;;;;;12.48;2.42;;;;;;;;;;10360349;28;20049;-59
2023/04/24 13:29:00;;;;;;;16.00;2.20;;;;;;;;;;10361361;28;20058;-59
2023/04/24 13:34:02;;;;;;;8.77;2.22;;;;;;;;;;10359634;28;20513;-63
2023/04/24 13:39:04;;;;;;;11.82;2.58;;;;;;;;;;10371096;28;20042;-60
2023/04/24 13:44:06;;;;;;;3.15;2.47;;;;;;;;;;10371447;28;20034;-60
2023/04/24 13:49:07;;;;;;;5.57;2.50;;;;;;;;;;10351883;28;20061;-61
2023/04/24 13:54:08;;;;;;;5.65;2.47;;;;;;;;;;10370407;28;20056;-61
2023/04/24 13:59:09;;;;;;;4.55;2.40;;;;;;;;;;10369467;28;20030;-60
2023/04/24 14:04:10;;;;;;;4.70;2.40;;;;;;;;;;10351007;28;20092;-60
2023/04/24 14:09:10;;;;;;;2.70;1.88;;;;;;;;;;10367706;28;20033;-60
2023/04/24 14:14:11;;;;;;;3.22;2.20;;;;;;;;;;10363661;28;20026;-60
2023/04/24 14:19:12;;;;;;;3.67;2.08;;;;;;;;;;10369670;28;20065;-60
2023/04/24 14:24:12;;;;;;;4.25;1.80;;;;;;;;;;10368644;28;20025;-60
2023/04/24 14:29:13;;;;;;;4.03;1.90;;;;;;;;;;10364138;28;20038;-60
2023/04/24 14:34:14;;;;;;;2.47;2.10;;;;;;;;;;10361397;28;20030;-60
2023/04/24 14:39:14;;;;;;;3.08;1.90;;;;;;;;;;10367235;28;20038;-60
2023/04/24 14:44:15;;;;;;;4.93;2.00;;;;;;;;;;10366720;28;20022;-60
2023/04/24 14:49:15;;;;;;;4.22;2.30;;;;;;;;;;10368554;28;20442;-60
2023/04/24 14:54:16;;;;;;;1.80;1.67;;;;;;;;;;10367059;28;20042;-62
2023/04/24 14:59:17;;;;;;;4.88;2.10;;;;;;;;;;10365880;28;20038;-60
2023/04/24 15:04:17;;;;;;;1.88;1.70;;;;;;;;;;10366642;28;20037;-61
2023/04/24 15:09:18;;;;;;;7.68;2.10;;;;;;;;;;10366848;28;20389;-60
2023/04/24 15:14:18;;;;;;;2.25;1.90;;;;;;;;;;10360482;28;20092;-60
2023/04/24 15:19:19;;;;;;;2.03;1.83;;;;;;;;;;10366226;28;20022;-60
2023/04/24 15:24:21;;;;;;;3.10;2.10;;;;;;;;;;10365232;28;20045;-61
2023/04/24 15:29:21;;;;;;;2.22;1.80;;;;;;;;;;10366032;28;20040;-61
2023/04/24 15:34:22;;;;;;;2.40;1.75;;;;;;;;;;10357353;28;20034;-60
2023/04/24 15:39:24;;;;;;;1.88;1.50;;;;;;;;;;10365861;28;20045;-61
2023/04/24 15:44:24;;;;;;;3.25;1.75;;;;;;;;;;10364897;28;20556;-60
2023/04/24 15:49:25;;;;;;;2.63;1.85;;;;;;;;;;10365726;28;20052;-60
2023/04/24 15:54:26;;;;;;;1.88;1.70;;;;;;;;;;10353063;28;20053;-60
2023/04/24 15:59:28;;;;;;;2.80;1.80;;;;;;;;;;10365635;28;20034;-60
2023/04/24 16:04:29;;;;;;;2.78;1.48;;;;;;;;;;10365851;28;20105;-60
2023/04/24 16:09:30;;;;;;;1.40;1.30;;;;;;;;;;10364599;28;20026;-61
2023/04/24 16:14:31;;;;;;;1.42;1.30;;;;;;;;;;10365079;28;20022;-60
2023/04/24 16:19:33;;;;;;;1.38;1.10;;;;;;;;;;10361517;28;20041;-60
2023/04/24 16:24:34;;;;;;;7.22;1.75;;;;;;;;;;10361923;28;20496;-63
2023/04/24 16:29:34;;;;;;;7.22;1.80;;;;;;;;;;10372092;28;20522;-61
2023/04/24 16:34:35;;;;;;;1.92;1.63;;;;;;;;;;10371988;28;20096;-61
2023/04/24 16:39:37;;;;;;;3.70;1.73;;;;;;;;;;10371980;28;20398;-61
2023/04/24 16:44:39;;;;;;;6.57;1.85;;;;;;;;;;10371699;28;20174;-59
2023/04/24 16:49:42;;;;;;;1.95;1.70;;;;;;;;;;10371844;28;20548;-60
2023/04/24 16:54:43;;;;;;;3.05;1.50;;;;;;;;;;10369851;28;20470;-62
2023/04/24 16:59:44;;;;;;;1.90;1.70;;;;;;;;;;10371407;28;20038;-59
2023/04/24 17:04:45;;;;;;;3.33;1.92;;;;;;;;;;10370558;28;20034;-59
2023/04/24 17:09:45;;;;;;;1.98;1.85;;;;;;;;;;10371208;28;20044;-60
2023/04/24 17:14:46;;;;;;;2.85;1.90;;;;;;;;;;10366817;28;20113;-60
2023/04/24 17:19:47;;;;;;;8.02;2.15;;;;;;;;;;10370193;28;20025;-57
2023/04/24 17:24:47;;;;;;;5.57;2.30;;;;;;;;;;10380416;28;20034;-63
2023/04/24 17:29:48;;;;;;;2.17;1.80;;;;;;;;;;10381844;28;20182;-62
2023/04/24 17:34:49;;;;;;;2.75;1.63;;;;;;;;;;10371013;28;20036;-60
2023/04/24 17:39:49;;;;;;;2.78;2.08;;;;;;;;;;10352976;28;20033;-57
2023/04/24 17:44:50;;;;;;;1.95;1.75;;;;;;;;;;10369509;28;20466;-59
2023/04/24 17:49:51;;;;;;;4.47;1.77;;;;;;;;;;10361770;28;20029;-55
2023/04/24 17:54:52;;;;;;;2.35;1.80;;;;;;;;;;10364100;28;20665;-64
2023/04/24 17:59:52;;;;;;;3.83;1.50;;;;;;;;;;10370690;28;20250;-62
2023/04/24 18:04:53;;;;;;;2.55;1.67;;;;;;;;;;10366912;28;20109;-54
2023/04/24 18:09:53;;;;;;;1.98;1.55;;;;;;;;;;10345267;28;20034;-52
2023/04/24 18:14:54;;;;;;;4.25;1.52;;;;;;;;;;10362381;28;20029;-55
2023/04/24 18:19:55;;;;;;;6.13;1.65;;;;;;;;;;10351085;28;20444;-58
2023/04/24 18:24:56;;;;;;;4.40;1.88;;;;;;;;;;10365848;28;20030;-57
2023/04/24 18:29:58;;;;;;;3.63;1.55;;;;;;;;;;10368232;28;20041;-54
2023/04/24 18:34:58;;;;;;;6.38;1.67;;;;;;;;;;10367822;28;20109;-56
2023/04/24 18:39:59;;;;;;;4.20;1.45;;;;;;;;;;10366271;28;20033;-55
2023/04/24 18:45:01;;;;;;;4.10;1.77;;;;;;;;;;10361522;28;20056;-54
2023/04/24 18:50:03;;;;;;;5.53;1.55;;;;;;;;;;10354063;28;20065;-61
2023/04/24 18:55:05;;;;;;;7.28;1.80;;;;;;;;;;10349378;28;20048;-61
2023/04/24 19:00:06;;;;;;;3.53;1.42;;;;;;;;;;10354406;28;20044;-59
2023/04/24 19:05:09;;;;;;;4.80;1.40;;;;;;;;;;10363474;28;20080;-56
2023/04/24 19:10:10;;;;;;;3.88;1.45;;;;;;;;;;10354835;28;20038;-65
2023/04/24 19:15:11;;;;;;;3.58;1.55;;;;;;;;;;10352825;28;20029;-63
2023/04/24 19:20:12;;;;;;;2.58;1.52;;;;;;;;;;10354627;28;20064;-60
2023/04/24 19:25:13;;;;;;;4.45;1.50;;;;;;;;;;10365958;28;20037;-62
2023/04/24 19:30:13;;;;;;;2.67;1.40;;;;;;;;;;10370347;28;20030;-61
2023/04/24 19:35:14;;;;;;;11.02;2.00;;;;;;;;;;10378271;28;20074;-57
2023/04/24 19:40:15;;;;;;;16.10;2.03;;;;;;;;;;10349684;28;20042;-55
2023/04/24 19:45:15;;;;;;;13.85;1.77;;;;;;;;;;10349291;28;20061;-58
2023/04/24 19:50:16;;;;;;;8.10;1.90;;;;;;;;;;10349984;28;20401;-56
2023/04/24 19:55:17;;;;;;;8.40;1.73;;;;;;;;;;10344667;28;20046;-56
2023/04/24 20:00:17;;;;;;;5.07;1.73;;;;;;;;;;10346457;28;20026;-58
2023/04/24 20:05:18;;;;;;;2.63;1.70;;;;;;;;;;10358017;28;20037;-58
2023/04/24 20:10:18;;;;;;;4.10;1.52;;;;;;;;;;10358694;28;20030;-54
2023/04/24 20:15:19;;;;;;;11.15;1.95;;;;;;;;;;10359461;28;20382;-63
2023/04/24 20:20:20;;;;;;;3.13;1.42;;;;;;;;;;10346427;28;20067;-60
2023/04/24 20:25:24;;;;;;;2.85;1.50;;;;;;;;;;10355831;28;20325;-59
2023/04/24 20:30:25;;;;;;;7.57;1.98;;;;;;;;;;10358211;28;20380;-54
2023/04/24 20:35:25;;;;;;;7.47;1.80;;;;;;;;;;10354945;28;20037;-57
2023/04/24 20:40:28;;;;;;;2.20;1.67;;;;;;;;;;10350267;28;20384;-55
2023/04/24 20:45:29;;;;;;;8.13;1.45;;;;;;;;;;10363130;28;20025;-57
2023/04/24 20:50:31;;;;;;;4.03;1.38;;;;;;;;;;10362581;28;20034;-60
2023/04/24 20:55:32;;;;;;;4.82;1.33;;;;;;;;;;10343714;28;20054;-63
2023/04/24 21:00:33;;;;;;;3.97;1.17;;;;;;;;;;10363044;28;20088;-63
2023/04/24 21:05:33;;;;;;;5.93;1.80;;;;;;;;;;10347064;28;20026;-64
2023/04/24 21:10:34;;;;;;;2.13;1.38;;;;;;;;;;10345623;28;20559;-62
2023/04/24 21:15:35;;;;;;;7.47;1.73;;;;;;;;;;10369022;28;20144;-61
2023/04/24 21:20:35;;;;;;;14.20;1.92;;;;;;;;;;10368690;28;20254;-61
2023/04/24 21:25:36;;;;;;;6.82;1.50;;;;;;;;;;10369626;28;20425;-63
2023/04/24 21:30:37;;;;;;;5.82;1.77;;;;;;;;;;10363729;28;20065;-65
2023/04/24 21:35:38;;;;;;;7.45;1.33;;;;;;;;;;10347386;28;20022;-62
2023/04/24 21:40:39;;;;;;;3.25;1.55;;;;;;;;;;10359063;28;20037;-57
2023/04/24 21:45:40;;;;;;;6.63;1.55;;;;;;;;;;10357245;28;20053;-62
2023/04/24 21:50:40;;;;;;;5.07;1.52;;;;;;;;;;10357306;28;20096;-63
2023/04/24 21:55:41;;;;;;;4.70;1.40;;;;;;;;;;10371287;28;20061;-58
2023/04/24 22:00:42;;;;;;;7.82;1.50;;;;;;;;;;10365290;28;20041;-59
2023/04/24 22:05:42;;;;;;;1.98;1.25;;;;;;;;;;10367159;28;20037;-54
2023/04/24 22:10:43;;;;;;;7.55;1.52;;;;;;;;;;10358103;28;20046;-56
2023/04/24 22:15:44;;;;;;;6.95;1.38;;;;;;;;;;10368989;28;20476;-56
2023/04/24 22:20:45;;;;;;;3.53;1.50;;;;;;;;;;10364845;28;20594;-55
2023/04/24 22:25:45;;;;;;;4.38;1.48;;;;;;;;;;10367496;28;20521;-55
2023/04/24 22:30:46;;;;;;;3.22;1.40;;;;;;;;;;10356981;28;20034;-58
2023/04/24 22:35:47;;;;;;;1.40;1.30;;;;;;;;;;10369242;28;20026;-55
2023/04/24 22:41:07;;;;;;;2.40;1.40;;;;;;;;;;10368642;28;20100;-55
2023/04/24 22:46:08;;;;;;;4.05;1.60;;;;;;;;;;10282013;28;20041;-64
2023/04/24 22:51:09;;;;;;;2.85;1.30;;;;;;;;;;10280129;28;20049;-66
2023/04/24 22:56:10;;;;;;;6.05;1.70;;;;;;;;;;10281113;28;20038;-63
2023/04/24 23:01:11;;;;;;;5.05;1.67;;;;;;;;;;10281163;28;20075;-63
2023/04/24 23:06:12;;;;;;;7.97;1.52;;;;;;;;;;10286433;28;20060;-64
2023/04/24 23:11:12;;;;;;;3.05;1.40;;;;;;;;;;10279261;28;20105;-66
2023/04/24 23:16:13;;;;;;;2.00;1.40;;;;;;;;;;10279422;28;20058;-62
2023/04/24 23:21:13;;;;;;;3.88;1.77;;;;;;;;;;10309133;28;20057;-56
2023/04/24 23:26:14;;;;;;;4.15;1.40;;;;;;;;;;10365837;28;20037;-55
2023/04/24 23:31:15;;;;;;;1.42;1.33;;;;;;;;;;10365383;28;20036;-56
2023/04/24 23:36:16;;;;;;;4.00;1.38;;;;;;;;;;10365328;28;20459;-55
2023/04/24 23:41:20;;;;;;;1.60;1.20;;;;;;;;;;10365994;28;20033;-55
2023/04/24 23:46:21;;;;;;;3.92;1.20;;;;;;;;;;10365706;28;20092;-59
2023/04/24 23:51:22;;;;;;;3.28;1.42;;;;;;;;;;10365617;28;20050;-57
2023/04/24 23:56:25;;;;;;;3.53;1.30;;;;;;;;;;10364401;28;20034;-54
